Time;durP1;ratioP1;P1;durP2;ratioP2;P2;SDS_P1;SDS_P2;PMS_P1;PMS_P2;Temp;Humidity;BMP_temperature;BMP_pressure;BME280_temperature;BME280_humidity;BME280_pressure;Samples;Min_cycle;Max_cycle;Signal;HPM_P1;HPM_P2
2022/06/23 00:00:35;;;;;;;21.40;11.07;;;;;;;23.90;67.26;98786.00;5038920;28;20166;-88
2022/06/23 00:03:03;;;;;;;16.43;10.00;;;;;;;22.17;67.50;98537.78;5038963;28;20627;-88
2022/06/23 00:05:36;;;;;;;16.80;9.57;;;;;;;20.22;67.50;98206.03;5039260;28;20189;-88
2022/06/23 00:08:04;;;;;;;19.33;10.03;;;;;;;23.50;68.11;98759.22;5038760;28;20221;-89
2022/06/23 00:10:38;;;;;;;18.67;9.83;;;;;;;21.67;68.75;98481.00;5038933;28;20170;-89
2022/06/23 00:13:15;;;;;;;20.67;10.17;;;;;;;22.45;69.34;98606.94;5038816;28;20174;-89
2022/06/23 00:15:43;;;;;;;22.63;10.03;;;;;;;23.28;69.38;98721.69;5039064;28;20181;-88
2022/06/23 00:18:19;;;;;;;17.57;10.13;;;;;;;21.32;68.49;98355.34;5038940;28;20178;-89
2022/06/23 00:20:47;;;;;;;20.87;10.90;;;;;;;22.98;69.15;98640.47;5054634;28;20188;-89
2022/06/23 00:23:19;;;;;;;20.63;11.33;;;;;;;22.00;68.87;98466.75;5036894;28;20174;-88
2022/06/23 00:25:54;;;;;;;17.40;10.70;;;;;;;21.58;69.49;98409.88;5036891;28;20240;-88
2022/06/23 00:28:31;;;;;;;17.53;10.10;;;;;;;21.12;68.35;98295.63;5037926;28;20257;-88
2022/06/23 00:31:04;;;;;;;17.40;10.33;;;;;;;20.93;68.44;98271.03;5037472;28;20209;-88
2022/06/23 00:33:44;;;;;;;17.60;10.00;;;;;;;21.60;68.17;98379.78;5040143;28;20178;-89
2022/06/23 00:36:17;;;;;;;21.83;10.17;;;;;;;22.67;68.08;98577.34;5039236;28;20562;-89
2022/06/23 00:38:42;;;;;;;16.47;9.70;;;;;;;23.79;68.46;98758.63;5038612;28;20630;-89
2022/06/23 00:41:21;;;;;;;16.73;9.63;;;;;;;23.73;69.35;98757.06;5038213;28;20166;-89
2022/06/23 00:43:50;;;;;;;16.77;9.53;;;;;;;21.75;69.35;98433.59;5038202;28;20173;-90
2022/06/23 00:46:22;;;;;;;17.33;9.37;;;;;;;21.80;68.82;98471.34;5048802;28;20173;-90
2022/06/23 00:48:54;;;;;;;19.70;9.73;;;;;;;23.66;68.89;98754.59;5046393;28;20206;-90
2022/06/23 00:51:37;;;;;;;15.30;8.90;;;;;;;23.60;68.47;98752.97;5044530;28;20198;-90
2022/06/23 00:54:04;;;;;;;16.43;8.97;;;;;;;23.58;68.51;98759.91;5038874;28;20312;-88
2022/06/23 00:56:51;;;;;;;17.67;9.57;;;;;;;23.67;68.25;98752.00;5040806;28;20169;-88
2022/06/23 00:59:20;;;;;;;18.00;9.63;;;;;;;23.65;68.34;98756.31;5046199;28;20174;-90
2022/06/23 01:01:53;;;;;;;14.60;8.87;;;;;;;21.74;68.38;98449.97;5052359;28;20184;-89
2022/06/23 01:04:30;;;;;;;21.17;9.10;;;;;;;21.91;68.70;98492.69;5045063;28;20166;-88
2022/06/23 01:07:15;;;;;;;15.67;9.17;;;;;;;23.47;69.11;98754.09;5049010;28;20195;-89
2022/06/23 01:09:58;;;;;;;17.23;9.23;;;;;;;20.12;69.02;98230.16;5045803;28;20229;-89
2022/06/23 01:12:29;;;;;;;16.53;9.27;;;;;;;23.49;68.98;98757.50;5044546;28;20294;-87
2022/06/23 01:15:41;;;;;;;16.87;9.50;;;;;;;23.37;69.08;98726.69;5035951;28;20288;-88
2022/06/23 01:18:09;;;;;;;16.67;8.40;;;;;;;23.53;69.70;98768.63;4993313;28;20195;-88
2022/06/23 01:20:53;;;;;;;18.50;9.20;;;;;;;23.40;70.31;98757.69;4992963;28;20616;-87
2022/06/23 01:23:41;;;;;;;17.27;8.93;;;;;;;23.29;71.07;98757.81;4992972;28;20222;-88
2022/06/23 01:26:09;;;;;;;16.97;9.43;;;;;;;23.40;70.59;98763.69;4992860;28;20198;-88
2022/06/23 01:28:40;;;;;;;15.30;9.30;;;;;;;22.64;70.30;98629.88;4992959;28;20212;-88
2022/06/23 01:31:28;;;;;;;17.83;9.63;;;;;;;22.82;69.68;98652.81;4977072;28;20195;-88
2022/06/23 01:34:12;;;;;;;19.33;9.60;;;;;;;23.39;69.37;98724.97;4993446;28;20202;-89
2022/06/23 01:36:53;;;;;;;23.43;9.83;;;;;;;23.44;70.00;98749.84;4993826;28;20613;-88
2022/06/23 01:39:21;;;;;;;18.70;10.00;;;;;;;23.43;70.57;98744.72;4994293;28;20183;-87
2022/06/23 01:42:03;;;;;;;16.33;9.87;;;;;;;23.04;71.66;98712.66;4996356;28;20182;-90
2022/06/23 01:44:46;;;;;;;17.73;9.87;;;;;;;23.12;72.36;98759.00;5001258;28;20660;-87
2022/06/23 01:47:28;;;;;;;16.90;9.67;;;;;;;22.08;72.77;98580.91;5012725;28;20187;-88
2022/06/23 01:50:18;;;;;;;17.13;9.70;;;;;;;20.92;72.24;98375.66;5018662;28;20222;-89
2022/06/23 01:52:47;;;;;;;17.87;9.37;;;;;;;22.65;72.50;98684.91;5027751;28;20201;-89
2022/06/23 01:55:24;;;;;;;18.87;9.87;;;;;;;22.49;72.59;98648.16;5045825;28;20608;-89
2022/06/23 01:58:04;;;;;;;18.90;9.40;;;;;;;22.77;72.54;98701.03;5050210;28;20213;-88
2022/06/23 02:00:29;;;;;;;19.10;9.83;;;;;;;22.46;72.87;98648.22;5054099;28;20216;-89
2022/06/23 02:03:14;;;;;;;20.80;10.30;;;;;;;19.85;73.83;98239.06;5054988;28;20158;-89
2022/06/23 02:05:47;;;;;;;19.17;10.53;;;;;;;22.21;75.27;98646.88;5053164;28;20162;-89
2022/06/23 02:08:37;;;;;;;20.23;11.13;;;;;;;22.87;75.38;98741.34;5050063;28;20240;-88
2022/06/23 02:11:29;;;;;;;16.43;10.37;;;;;;;22.39;75.86;98685.28;5045763;28;20170;-88
2022/06/23 02:14:06;;;;;;;21.13;11.47;;;;;;;22.69;76.00;98726.13;5045317;28;20206;-88
2022/06/23 02:16:52;;;;;;;17.70;10.20;;;;;;;22.50;76.05;98709.19;5046241;28;20184;-89
2022/06/23 02:19:27;;;;;;;20.23;11.10;;;;;;;22.74;75.73;98755.28;5063200;28;20166;-89
2022/06/23 02:21:56;;;;;;;19.87;10.80;;;;;;;22.10;75.53;98643.59;5051352;28;20196;-86
2022/06/23 02:24:32;;;;;;;18.87;9.50;;;;;;;22.44;74.30;98695.53;5048648;28;20549;-89
2022/06/23 02:27:05;;;;;;;18.40;10.10;;;;;;;22.65;73.22;98719.31;5051525;28;20176;-88
2022/06/23 02:29:41;;;;;;;16.97;9.37;;;;;;;22.50;72.65;98688.53;5045488;28;20193;-87
2022/06/23 02:32:29;;;;;;;15.47;9.30;;;;;;;20.02;71.46;98254.28;5033493;28;20162;-87
2022/06/23 02:35:09;;;;;;;18.03;10.03;;;;;;;21.33;71.60;98479.78;5033927;28;20192;-86
2022/06/23 02:37:54;;;;;;;18.07;9.73;;;;;;;22.60;71.80;98695.28;5034132;28;20351;-85
2022/06/23 02:40:38;;;;;;;16.23;9.97;;;;;;;22.92;71.34;98734.38;5033600;28;20205;-87
2022/06/23 02:43:13;;;;;;;20.23;9.87;;;;;;;23.02;70.68;98739.38;5050807;28;20256;-86
2022/06/23 02:45:50;;;;;;;18.73;9.60;;;;;;;22.98;70.87;98733.41;5050856;28;20193;-86
2022/06/23 02:48:44;;;;;;;18.73;9.37;;;;;;;23.11;70.63;98728.88;5066159;28;20187;-89
2022/06/23 02:51:20;;;;;;;21.47;10.07;;;;;;;23.07;70.63;98711.75;5066988;28;20224;-89
2022/06/23 02:53:57;;;;;;;19.80;10.10;;;;;;;23.14;70.44;98728.81;5052478;28;20181;-89
2022/06/23 02:56:25;;;;;;;17.83;9.60;;;;;;;23.09;70.96;98725.47;5046482;28;20230;-89
2022/06/23 02:59:40;;;;;;;17.03;9.83;;;;;;;22.82;72.22;98725.06;5067304;28;20180;-90
2022/06/23 03:02:13;;;;;;;21.13;10.30;;;;;;;22.85;72.58;98721.59;5008169;28;20283;-89
2022/06/23 03:04:50;;;;;;;17.50;9.83;;;;;;;22.88;72.23;98724.94;5000787;28;20218;-90
2022/06/23 03:07:31;;;;;;;18.80;9.70;;;;;;;22.92;72.23;98718.88;5000815;28;20171;-89
2022/06/23 03:10:18;;;;;;;18.20;9.70;;;;;;;22.85;71.75;98699.19;5007139;28;20305;-90
2022/06/23 03:13:06;;;;;;;14.50;9.77;;;;;;;21.95;71.36;98520.94;5004678;28;20182;-90
2022/06/23 03:15:48;;;;;;;23.30;10.13;;;;;;;22.18;72.43;98583.31;4986130;28;20211;-89
2022/06/23 03:18:55;;;;;;;18.70;11.07;;;;;;;22.68;72.98;98684.88;5000220;28;20270;-89
2022/06/23 03:21:27;;;;;;;20.47;10.73;;;;;;;21.01;74.20;98433.88;5020267;28;20660;-89
2022/06/23 03:23:55;;;;;;;20.80;10.73;;;;;;;22.81;74.63;98744.00;5003171;28;20220;-89
2022/06/23 03:26:41;;;;;;;16.00;10.47;;;;;;;21.38;74.94;98525.19;5024605;28;20258;-89
2022/06/23 03:29:32;;;;;;;21.80;10.87;;;;;;;22.77;75.31;98742.34;5025174;28;20214;-89
2022/06/23 03:32:10;;;;;;;18.60;10.47;;;;;;;22.85;74.29;98716.44;4951424;29;20615;-89
2022/06/23 03:34:38;;;;;;;21.10;10.50;;;;;;;22.72;73.87;98708.00;4951141;29;20772;-90
2022/06/23 03:37:21;;;;;;;17.87;10.60;;;;;;;22.87;74.02;98732.72;4958049;28;20597;-89
2022/06/23 03:42:51;;;;;;;15.83;10.43;;;;;;;20.72;74.69;98393.06;4978528;28;20247;-86
2022/06/23 03:45:27;;;;;;;18.90;10.23;;;;;;;22.73;74.14;98732.94;4980106;28;20192;-88
2022/06/23 03:47:58;;;;;;;20.87;10.63;;;;;;;22.97;73.87;98767.84;4981067;28;20214;-87
2022/06/23 03:51:03;;;;;;;18.93;10.53;;;;;;;23.18;73.03;98758.91;4980513;28;20231;-89
2022/06/23 03:53:39;;;;;;;22.97;10.97;;;;;;;23.29;72.86;98768.16;4978536;28;20191;-88
2022/06/23 03:56:09;;;;;;;16.80;10.80;;;;;;;22.61;72.79;98666.00;4961658;28;20680;-89
2022/06/23 03:58:43;;;;;;;19.93;10.97;;;;;;;20.61;72.46;98310.06;4981803;28;20685;-88
2022/06/23 04:01:11;;;;;;;21.83;12.10;;;;;;;23.19;73.88;98770.91;4981385;28;20215;-88
2022/06/23 04:03:45;;;;;;;23.20;11.93;;;;;;;22.96;75.42;98776.47;4979104;28;20265;-89
2022/06/23 04:06:38;;;;;;;26.43;16.50;;;;;;;23.38;74.01;98774.91;4979857;28;20684;-87
2022/06/23 04:09:16;;;;;;;21.00;13.20;;;;;;;23.51;73.72;98776.44;5011244;28;20217;-86
2022/06/23 04:11:45;;;;;;;22.63;12.70;;;;;;;23.60;73.01;98781.41;5036223;28;20621;-87
2022/06/23 04:14:19;;;;;;;25.30;12.43;;;;;;;23.58;73.68;98785.75;5035601;28;20235;-88
2022/06/23 04:16:49;;;;;;;19.07;11.47;;;;;;;23.61;72.50;98784.84;5035979;28;20207;-89
2022/06/23 04:19:28;;;;;;;19.33;11.17;;;;;;;23.26;73.90;98775.13;5036526;28;20170;-88
2022/06/23 04:22:03;;;;;;;20.13;10.90;;;;;;;23.32;74.17;98775.84;5038800;28;20182;-87
2022/06/23 04:24:28;;;;;;;24.00;11.23;;;;;;;21.34;73.65;98417.13;5039419;28;20582;-88
2022/06/23 04:27:03;;;;;;;20.30;10.77;;;;;;;22.26;72.81;98540.22;5053469;28;20197;-88
2022/06/23 04:29:37;;;;;;;21.77;11.20;;;;;;;21.15;72.33;98316.16;5054665;28;20288;-88
2022/06/23 04:32:17;;;;;;;16.90;10.30;;;;;;;22.36;72.81;98535.72;5038095;28;20166;-88
2022/06/23 04:34:54;;;;;;;25.20;11.00;;;;;;;22.08;72.14;98467.47;5034944;28;20182;-88
2022/06/23 04:37:32;;;;;;;16.77;10.40;;;;;;;23.18;72.38;98640.97;5032446;28;20676;-88
2022/06/23 04:40:07;;;;;;;17.23;10.30;;;;;;;21.48;71.86;98350.81;5034299;28;20235;-86
2022/06/23 04:42:34;;;;;;;19.13;10.47;;;;;;;23.46;72.50;98675.72;5034393;28;20263;-86
2022/06/23 04:45:38;;;;;;;17.77;10.33;;;;;;;23.96;72.09;98761.75;5033047;28;20174;-87
2022/06/23 04:48:15;;;;;;;21.77;10.60;;;;;;;23.92;72.10;98735.13;5034938;28;20240;-87
2022/06/23 04:51:04;;;;;;;15.17;10.17;;;;;;;23.55;72.69;98692.78;5052835;28;20184;-87
2022/06/23 04:53:35;;;;;;;16.73;10.30;;;;;;;23.88;72.69;98756.75;5050440;28;20859;-86
2022/06/23 04:56:26;;;;;;;17.93;10.43;;;;;;;23.41;72.57;98694.78;5050820;28;20193;-88
2022/06/23 04:59:01;;;;;;;16.80;10.13;;;;;;;23.72;72.60;98744.16;4983011;28;20233;-87
2022/06/23 05:01:36;;;;;;;22.33;10.20;;;;;;;22.88;71.32;98553.75;4972077;28;20278;-87
2022/06/23 05:04:03;;;;;;;20.67;10.67;;;;;;;23.00;71.73;98604.28;4975268;28;20188;-87
2022/06/23 05:06:35;;;;;;;17.87;9.90;;;;;;;23.86;72.74;98778.34;4970909;28;20319;-86
2022/06/23 05:09:14;;;;;;;16.43;10.27;;;;;;;22.78;72.16;98572.84;4968615;28;20267;-87
2022/06/23 05:11:45;;;;;;;17.90;9.70;;;;;;;23.99;71.18;98767.72;4957518;28;20200;-88
2022/06/23 05:14:20;;;;;;;20.33;11.40;;;;;;;22.90;69.85;98552.84;4973124;28;20279;-88
2022/06/23 05:16:50;;;;;;;16.07;9.93;;;;;;;24.49;68.25;98751.16;4976795;28;20202;-87
2022/06/23 05:19:31;;;;;;;20.83;9.90;;;;;;;24.61;67.85;98734.50;4987039;28;20231;-88
2022/06/23 05:22:10;;;;;;;21.47;9.10;;;;;;;25.02;66.42;98768.06;4971022;28;20284;-87
2022/06/23 05:24:39;;;;;;;16.67;9.27;;;;;;;25.01;64.78;98783.63;4976535;28;20187;-87
2022/06/23 05:27:14;;;;;;;19.90;9.97;;;;;;;22.21;63.63;98242.06;4971314;28;20188;-87
2022/06/23 05:29:49;;;;;;;16.33;9.47;;;;;;;25.15;63.38;98738.38;4974060;28;20218;-87
2022/06/23 05:32:25;;;;;;;15.77;8.97;;;;;;;25.20;62.67;98770.19;4991402;28;20190;-88
2022/06/23 05:35:20;;;;;;;16.47;9.10;;;;;;;25.37;62.79;98789.63;4994721;28;20268;-88
2022/06/23 05:37:54;;;;;;;16.90;8.97;;;;;;;25.83;61.32;98792.75;4993804;28;20348;-85
2022/06/23 05:40:29;;;;;;;16.73;8.93;;;;;;;25.92;60.09;98792.50;5009541;28;20344;-87
2022/06/23 05:43:00;;;;;;;16.73;9.00;;;;;;;25.86;59.15;98784.03;5010440;28;20698;-87
2022/06/23 05:45:29;;;;;;;13.60;8.20;;;;;;;25.59;58.13;98744.16;5009862;28;20190;-88
2022/06/23 05:47:56;;;;;;;12.83;8.67;;;;;;;26.08;58.42;98785.97;4998421;28;20666;-88
2022/06/23 05:50:28;;;;;;;19.92;8.40;;;;;;;26.05;58.18;98783.47;5015624;28;20258;-89
2022/06/23 05:53:03;;;;;;;12.10;8.27;;;;;;;26.01;57.54;98770.66;5020856;28;20248;-89
2022/06/23 05:55:37;;;;;;;15.03;9.00;;;;;;;26.19;55.98;98772.72;5017691;28;20200;-88
2022/06/23 05:58:14;;;;;;;19.48;9.35;;;;;;;26.46;55.08;98771.06;5017988;28;20254;-89
2022/06/23 06:00:57;;;;;;;14.15;8.18;;;;;;;26.73;53.92;98706.13;5013837;28;20196;-88
2022/06/23 06:03:40;;;;;;;15.38;7.90;;;;;;;27.33;52.11;98773.44;5009406;28;20192;-88
2022/06/23 06:06:07;;;;;;;12.32;7.25;;;;;;;26.58;52.38;98744.72;5009916;28;20268;-88
2022/06/23 06:11:25;;;;;;;14.15;6.93;;;;;;;27.33;50.01;98772.59;5009014;28;20192;-84
2022/06/23 06:13:51;;;;;;;11.90;7.57;;;;;;;27.36;50.81;98780.31;5014162;28;20248;-87
2022/06/23 06:16:17;;;;;;;17.33;7.68;;;;;;;27.41;51.00;98776.66;5031100;28;20759;-86
2022/06/23 06:18:44;;;;;;;16.30;7.57;;;;;;;26.62;49.80;98635.50;5039707;28;20386;-85
2022/06/23 06:21:16;;;;;;;12.75;7.15;;;;;;;27.30;51.03;98777.91;5071176;28;20237;-85
2022/06/23 06:24:18;;;;;;;14.68;7.80;;;;;;;27.48;51.19;98779.91;5070614;28;20175;-85
2022/06/23 06:26:47;;;;;;;13.32;7.90;;;;;;;27.34;50.92;98741.34;5070583;28;20216;-85
2022/06/23 06:29:22;;;;;;;10.93;7.05;;;;;;;27.24;52.16;98784.16;5070057;28;20691;-85
2022/06/23 06:31:52;;;;;;;10.20;7.07;;;;;;;27.33;51.10;98796.00;5070763;28;20543;-85
2022/06/23 06:34:58;;;;;;;15.80;7.15;;;;;;;27.33;51.16;98783.84;5070579;28;20181;-85
2022/06/23 06:37:29;;;;;;;14.02;7.82;;;;;;;26.72;52.14;98694.06;5048395;28;20201;-84
2022/06/23 06:39:59;;;;;;;13.23;7.78;;;;;;;27.52;52.50;98778.91;5048057;28;20219;-84
2022/06/23 06:42:30;;;;;;;17.33;8.82;;;;;;;28.22;51.18;98787.66;5037616;28;20346;-85
2022/06/23 06:44:59;;;;;;;19.25;9.73;;;;;;;28.45;50.18;98792.00;5028165;28;20187;-86
2022/06/23 06:47:34;;;;;;;18.17;8.80;;;;;;;28.48;48.35;98778.88;5018351;28;20736;-85
2022/06/23 06:50:06;;;;;;;12.07;8.30;;;;;;;28.45;48.46;98810.25;5041926;28;20208;-85
2022/06/23 06:52:32;;;;;;;14.23;8.82;;;;;;;27.98;47.92;98793.75;5048060;28;20191;-86
2022/06/23 06:55:05;;;;;;;12.32;7.47;;;;;;;27.88;49.21;98826.22;5048126;28;20206;-87
2022/06/23 06:57:46;;;;;;;16.20;7.47;;;;;;;27.54;50.17;98844.72;5048628;28;20223;-87
2022/06/23 07:00:22;;;;;;;18.90;7.82;;;;;;;26.74;54.54;98797.88;5047450;28;20188;-86
2022/06/23 07:03:00;;;;;;;18.15;8.27;;;;;;;26.25;58.06;98864.25;5031291;28;20281;-86
2022/06/23 07:05:35;;;;;;;18.42;8.52;;;;;;;25.89;62.67;98903.25;5047968;28;20177;-84
2022/06/23 07:08:42;;;;;;;16.73;8.80;;;;;;;25.11;68.67;98949.16;5047591;28;20218;-85
2022/06/23 07:11:14;;;;;;;12.20;8.57;;;;;;;23.20;77.77;98958.59;4968914;28;20309;-84
2022/06/23 07:14:08;;;;;;;15.83;8.70;;;;;;;22.69;82.84;98999.69;4969091;28;20188;-86
2022/06/23 07:16:59;;;;;;;18.80;11.63;;;;;;;22.62;85.99;99002.31;4968837;28;20251;-86
2022/06/23 07:19:44;;;;;;;22.83;12.30;;;;;;;21.28;91.27;98842.91;4977204;28;20194;-85
2022/06/23 07:22:09;;;;;;;22.03;12.03;;;;;;;21.91;99.02;99073.47;4988906;28;20191;-85
2022/06/23 07:25:08;;;;;;;17.63;10.23;;;;;;;21.76;100.00;99087.25;4990528;28;20201;-85
2022/06/23 07:27:53;;;;;;;19.20;10.67;;;;;;;21.61;99.29;99099.38;4988137;28;20199;-85
2022/06/23 07:30:26;;;;;;;13.60;8.23;;;;;;;20.84;95.53;98999.28;4988010;28;20215;-84
2022/06/23 07:32:58;;;;;;;19.90;9.53;;;;;;;20.94;100.00;99027.56;4986189;28;20210;-84
2022/06/23 07:35:37;;;;;;;17.07;10.00;;;;;;;20.74;100.00;98987.34;4972026;28;20183;-84
2022/06/23 07:38:39;;;;;;;21.00;11.17;;;;;;;21.02;100.00;99023.22;4987991;28;20294;-83
2022/06/23 07:41:12;;;;;;;16.70;10.93;;;;;;;20.83;100.00;99008.72;4988267;28;21398;-84
2022/06/23 07:43:46;;;;;;;17.23;10.90;;;;;;;20.90;100.00;98991.56;4968734;28;20278;-86
2022/06/23 07:46:12;;;;;;;18.83;10.87;;;;;;;21.04;100.00;98957.16;4988234;28;20635;-85
2022/06/23 07:48:39;;;;;;;18.77;11.53;;;;;;;20.78;100.00;98886.97;5020655;28;20229;-84
2022/06/23 07:51:07;;;;;;;18.03;11.57;;;;;;;21.22;100.00;98948.50;5049852;28;20177;-84
2022/06/23 07:53:36;;;;;;;18.37;10.93;;;;;;;21.22;100.00;98955.38;5049548;28;20173;-84
2022/06/23 07:56:04;;;;;;;17.43;11.70;;;;;;;21.13;100.00;98940.81;5049475;28;20189;-84
2022/06/23 07:58:33;;;;;;;19.20;11.87;;;;;;;20.21;100.00;98774.94;5050099;28;20188;-84
2022/06/23 08:01:08;;;;;;;19.20;11.63;;;;;;;21.12;100.00;98939.97;5049654;28;20173;-84
2022/06/23 08:03:57;;;;;;;17.07;11.27;;;;;;;20.22;100.00;98744.91;5049552;28;20610;-84
2022/06/23 08:06:24;;;;;;;20.50;11.73;;;;;;;20.97;100.00;98890.28;5049983;28;20254;-86
2022/06/23 08:08:54;;;;;;;17.23;10.53;;;;;;;20.88;100.00;98869.72;5047270;28;20229;-85
2022/06/23 08:14:13;;;;;;;18.40;10.43;;;;;;;21.53;100.00;98933.72;5052863;28;20188;-84
2022/06/23 08:16:51;;;;;;;16.47;9.40;;;;;;;21.15;100.00;98939.13;5051669;28;20188;-83
2022/06/23 08:19:28;;;;;;;15.07;10.43;;;;;;;21.24;100.00;98948.47;5057910;28;20238;-83
2022/06/23 08:22:01;;;;;;;17.43;10.50;;;;;;;21.09;100.00;98929.72;5075999;28;20597;-84
2022/06/23 08:24:27;;;;;;;18.10;10.87;;;;;;;21.44;100.00;98929.47;5061180;28;20185;-84
2022/06/23 08:26:57;;;;;;;14.50;9.77;;;;;;;21.37;100.00;98888.34;5056608;28;20649;-86
2022/06/23 08:29:29;;;;;;;19.20;9.87;;;;;;;22.14;100.00;98978.72;5052990;28;20215;-84
2022/06/23 08:31:56;;;;;;;17.10;10.33;;;;;;;21.95;100.00;99002.13;5052830;28;20681;-85
2022/06/23 08:34:22;;;;;;;20.03;9.80;;;;;;;18.98;100.00;98527.22;5052816;28;20187;-85
2022/06/23 08:36:56;;;;;;;19.37;11.07;;;;;;;21.80;100.00;98976.44;5052758;28;20177;-85
2022/06/23 08:39:36;;;;;;;31.37;15.37;;;;;;;21.11;100.00;99050.69;5052251;28;20680;-86
2022/06/23 08:42:13;;;;;;;23.10;12.67;;;;;;;20.82;100.00;99057.63;5052738;28;20665;-86
2022/06/23 08:44:57;;;;;;;23.93;11.77;;;;;;;20.65;100.00;99023.38;5054118;28;20189;-83
2022/06/23 08:47:46;;;;;;;23.57;13.03;;;;;;;20.63;100.00;99033.63;5041914;28;20312;-87
2022/06/23 08:50:37;;;;;;;23.47;12.37;;;;;;;19.75;100.00;98889.00;5063598;28;20282;-86
2022/06/23 08:53:23;;;;;;;24.13;13.23;;;;;;;20.30;100.00;98995.16;5073320;28;20196;-86
2022/06/23 08:56:08;;;;;;;22.90;14.13;;;;;;;19.26;100.00;98829.91;5074443;28;20183;-87
2022/06/23 08:58:49;;;;;;;24.83;13.43;;;;;;;20.30;100.00;99044.00;5072376;28;20211;-85
2022/06/23 09:01:30;;;;;;;21.73;13.90;;;;;;;19.97;100.00;98975.44;5074365;28;20720;-86
2022/06/23 09:04:23;;;;;;;30.00;14.80;;;;;;;20.19;100.00;99030.28;5074282;28;20188;-86
2022/06/23 09:07:07;;;;;;;27.70;14.63;;;;;;;19.06;100.00;98876.97;5073513;28;20188;-86
2022/06/23 09:09:53;;;;;;;20.13;13.57;;;;;;;20.01;100.00;98965.16;5072655;28;20261;-86
2022/06/23 09:12:48;;;;;;;21.87;13.50;;;;;;;20.15;100.00;98988.28;5073104;28;20196;-86
2022/06/23 09:15:38;;;;;;;22.73;13.27;;;;;;;20.38;100.00;98953.13;5072997;28;20271;-86
2022/06/23 09:18:35;;;;;;;26.53;13.53;;;;;;;20.45;100.00;98969.41;5072308;28;20305;-87
2022/06/23 09:21:10;;;;;;;25.23;14.30;;;;;;;20.36;100.00;98966.84;5050090;28;20204;-86
2022/06/23 09:24:15;;;;;;;25.33;14.13;;;;;;;20.76;100.00;98980.44;5050009;28;20199;-86
2022/06/23 09:27:03;;;;;;;22.03;12.83;;;;;;;20.55;100.00;98951.38;5050422;28;20228;-85
2022/06/23 09:29:49;;;;;;;21.07;13.37;;;;;;;21.17;100.00;98984.59;5052116;28;20677;-85
2022/06/23 09:32:36;;;;;;;19.23;13.10;;;;;;;21.42;100.00;98995.59;5036470;28;20640;-85
2022/06/23 09:35:10;;;;;;;22.90;13.73;;;;;;;21.14;100.00;98999.19;5034076;28;20192;-85
2022/06/23 09:37:59;;;;;;;22.30;13.30;;;;;;;21.02;100.00;99009.50;5053088;28;20646;-85
2022/06/23 09:40:57;;;;;;;19.43;13.23;;;;;;;19.23;100.00;98640.00;5051460;28;20190;-85
2022/06/23 09:43:25;;;;;;;23.23;14.17;;;;;;;21.92;100.00;98997.00;5032146;28;20213;-85
2022/06/23 09:46:15;;;;;;;24.00;14.03;;;;;;;22.80;100.00;98999.56;5013943;28;20288;-85
2022/06/23 09:49:08;;;;;;;22.57;12.47;;;;;;;22.73;100.00;98923.94;5021192;28;21284;-85
2022/06/23 09:51:36;;;;;;;20.40;11.10;;;;;;;23.73;100.00;99000.06;5030169;28;20697;-84
2022/06/23 09:54:04;;;;;;;14.93;9.40;;;;;;;23.63;100.00;98982.09;5030378;28;20189;-84
2022/06/23 09:56:57;;;;;;;20.70;10.33;;;;;;;23.55;100.00;98966.72;5031177;28;20205;-86
2022/06/23 09:59:38;;;;;;;19.83;11.17;;;;;;;23.88;100.00;98958.41;5053311;28;20177;-85
2022/06/23 10:02:06;;;;;;;17.67;11.20;;;;;;;24.08;100.00;98961.53;5054163;28;20188;-85
2022/06/23 10:04:53;;;;;;;20.00;11.50;;;;;;;24.82;100.00;98961.03;5053317;28;20666;-85
2022/06/23 10:07:31;;;;;;;16.70;10.50;;;;;;;24.98;100.00;98973.63;5054506;28;20188;-85
2022/06/23 10:09:56;;;;;;;17.60;10.70;;;;;;;25.12;100.00;98976.78;5057584;28;20209;-84
2022/06/23 10:12:47;;;;;;;18.53;10.80;;;;;;;25.45;100.00;98975.19;5053066;28;20902;-85
2022/06/23 10:15:30;;;;;;;12.93;9.27;;;;;;;25.90;100.00;98972.44;5053122;28;20185;-85
2022/06/23 10:18:20;;;;;;;15.20;9.07;;;;;;;26.13;100.00;98970.09;5051995;28;20199;-87
2022/06/23 10:21:03;;;;;;;15.73;10.80;;;;;;;26.34;100.00;98957.41;5051440;28;20192;-84
2022/06/23 10:23:44;;;;;;;16.47;10.07;;;;;;;25.93;100.00;98877.19;5052926;28;20201;-86
2022/06/23 10:26:27;;;;;;;14.05;9.50;;;;;;;25.68;100.00;98838.09;5051117;28;20181;-86
2022/06/23 10:29:22;;;;;;;15.05;9.65;;;;;;;23.94;100.00;98573.03;5051284;28;20209;-85
2022/06/23 10:32:22;;;;;;;18.65;10.32;;;;;;;26.42;100.00;98930.41;5052558;28;20603;-86
2022/06/23 10:35:25;;;;;;;11.52;9.23;;;;;;;26.42;100.00;98931.28;5051793;28;20261;-87
2022/06/23 10:38:31;;;;;;;12.85;9.23;;;;;;;25.76;100.00;98923.50;5052345;28;20606;-85
2022/06/23 10:41:14;;;;;;;11.87;8.60;;;;;;;26.29;100.00;98917.75;5052564;28;20197;-85
2022/06/23 10:44:04;;;;;;;14.60;9.35;;;;;;;26.29;100.00;98922.97;5056807;28;20243;-86
2022/06/23 10:46:32;;;;;;;14.88;9.70;;;;;;;26.45;88.54;98930.34;5058608;28;20177;-85
2022/06/23 10:49:16;;;;;;;16.30;9.10;;;;;;;26.97;82.63;98937.53;5056821;28;20202;-86
2022/06/23 10:52:00;;;;;;;17.95;10.65;;;;;;;27.34;84.24;98928.53;5052256;28;20169;-85
2022/06/23 10:54:43;;;;;;;17.52;10.90;;;;;;;27.49;84.20;98932.44;5027554;28;20227;-85
2022/06/23 10:57:36;;;;;;;15.75;10.30;;;;;;;27.11;81.73;98938.81;5047763;28;20196;-85
2022/06/23 11:00:06;;;;;;;17.25;10.82;;;;;;;27.13;83.67;98938.75;5053126;28;20194;-86
2022/06/23 11:02:56;;;;;;;17.17;10.68;;;;;;;27.20;83.36;98933.31;5051497;28;20283;-85
2022/06/23 11:05:43;;;;;;;19.48;11.48;;;;;;;27.12;88.80;98937.03;5051674;28;20216;-86
2022/06/23 11:08:47;;;;;;;16.38;10.82;;;;;;;27.36;84.74;98920.72;5050876;28;20231;-85
2022/06/23 11:11:27;;;;;;;19.08;10.50;;;;;;;27.52;80.40;98914.16;5050726;28;20279;-84
2022/06/23 11:14:20;;;;;;;14.80;10.32;;;;;;;27.48;80.97;98889.97;5030874;28;20247;-84
2022/06/23 11:17:00;;;;;;;16.00;10.57;;;;;;;28.01;77.48;98905.56;5045937;28;20191;-86
2022/06/23 11:19:33;;;;;;;14.77;10.57;;;;;;;27.70;77.35;98868.44;5048310;28;20683;-85
2022/06/23 11:22:15;;;;;;;17.27;11.40;;;;;;;28.06;79.56;98911.47;5048221;28;20588;-85
2022/06/23 11:24:56;;;;;;;14.63;10.38;;;;;;;28.41;76.62;98921.50;5048694;28;20282;-85
2022/06/23 11:27:40;;;;;;;16.35;10.30;;;;;;;27.88;76.49;98901.69;5047904;28;20592;-85
2022/06/23 11:30:18;;;;;;;15.77;9.32;;;;;;;27.97;76.08;98909.16;5047585;28;20670;-85
2022/06/23 11:32:49;;;;;;;15.48;9.18;;;;;;;28.35;75.29;98887.03;5047876;28;20252;-86
2022/06/23 11:35:41;;;;;;;13.45;9.15;;;;;;;28.71;71.46;98856.16;5047564;28;20252;-85
2022/06/23 11:38:30;;;;;;;14.05;8.88;;;;;;;28.96;70.14;98893.41;5051771;28;20187;-84
2022/06/23 11:41:09;;;;;;;11.98;8.50;;;;;;;29.40;67.72;98884.72;5047934;28;20251;-85
2022/06/23 11:44:01;;;;;;;11.15;7.93;;;;;;;30.30;66.06;98886.97;5031970;28;20598;-85
2022/06/23 11:46:35;;;;;;;13.27;8.40;;;;;;;30.79;63.24;98867.34;5049752;28;20196;-86
2022/06/23 11:49:20;;;;;;;12.27;8.40;;;;;;;30.68;65.44;98887.91;5056671;28;20557;-86
2022/06/23 11:51:48;;;;;;;12.70;8.30;;;;;;;30.40;65.71;98883.06;5067235;28;20196;-85
2022/06/23 11:54:13;;;;;;;13.43;7.93;;;;;;;30.92;64.71;98884.19;5043815;28;20228;-85
2022/06/23 11:57:08;;;;;;;8.85;6.88;;;;;;;31.36;59.79;98832.34;5055503;28;20622;-85
2022/06/23 11:59:40;;;;;;;11.43;7.40;;;;;;;32.08;58.29;98881.03;5033601;28;20213;-86
2022/06/23 12:02:06;;;;;;;12.30;7.47;;;;;;;31.88;59.07;98894.28;5033368;28;20186;-86
2022/06/23 12:04:38;;;;;;;8.75;6.45;;;;;;;32.66;57.76;98901.59;5032963;28;20619;-86
2022/06/23 12:07:20;;;;;;;7.88;6.97;;;;;;;32.96;56.92;98860.56;5033409;28;20573;-85
2022/06/23 12:09:57;;;;;;;10.45;6.85;;;;;;;33.80;53.24;98893.38;5032936;28;20300;-86
2022/06/23 12:12:23;;;;;;;10.98;7.00;;;;;;;33.92;52.57;98873.44;5033106;28;20170;-87
2022/06/23 12:14:50;;;;;;;8.43;6.97;;;;;;;33.35;51.89;98883.72;5017604;28;20232;-85
2022/06/23 12:17:33;;;;;;;8.57;6.70;;;;;;;33.46;52.24;98901.50;5033550;28;20194;-85
2022/06/23 12:20:10;;;;;;;10.45;6.50;;;;;;;34.29;50.30;98913.19;5033510;28;20208;-85